Relevés horaires Chievres (Belgique)


Relevés horaires à Chievres - Lundi 26 Juill. 2021
Heure UTC1 Température [°C] Vent [km/h] Hum. [%] Pres.4 [hPa] Visi. [Km] Nébu. [octa] Préc.5 [mm] Cond.
2m. Res. Ros. Dir.2 Vit. Moy. Raf.3
23:00 16.0 16.0 15.5 S 5.6 -- 7.4 97 1012.8(0.7/3h) -- -- -- --
22:00 15.1 15.1 14.8 S 3.7 -- 5.6 98 1012.8(1.0/3h) -- -- -- --
21:00 16.2 16.2 15.7 S 3.7 -- 9.3 97 1012.6(1.1/3h) -- -- -- --
20:00 17.2 17.2 16.1 OSO 3.7 -- 5.6 93 1012.2(1.2/3h) -- -- -- --
19:00 18.3 18.3 17.0 NNO 3.7 -- 9.3 92 1011.7(0.7/3h) -- -- -- --
18:00 19.0 19.0 17.0 O 3.7 -- 14.8 88 1011.2(0.3/3h) -- -- -- --
17:00 19.3 19.3 16.3 O 7.4 -- 13.0 83 1010.8(0.0/3h) -- -- -- --
16:00 20.6 20.6 16.8 O 7.4 -- 11.1 79 1011(0.0/3h) -- -- -- --
15:00 18.6 18.6 16.9 SO 5.6 -- 14.8 90 1010.8(0.0/3h) -- -- -- --
14:00 19.0 19.0 17.5 OSO 7.4 -- 11.1 91 1010.7(0.1/3h) -- -- -- --
13:00 17.0 17.0 16.3 SO 5.6 -- 14.8 96 1011(0.4/3h) -- -- -- --
12:00 18.6 18.6 16.5 OSO 5.6 -- 16.7 88 1011(0.4/3h) -- -- -- --
11:00 20.0 20.0 16.3 SO 9.3 -- 14.8 79 1010.6(0.6/3h) -- -- -- --
10:00 18.7 18.7 16.4 SO 11.1 -- 16.7 86 1010.5(1.0/3h) -- -- -- --
09:00 17.7 17.7 16.1 SSO 9.3 -- 14.8 90 1010.5(1.0/3h) -- -- -- --
08:00 17.4 17.4 16.2 SSO 9.3 -- 13.0 93 1010.1(1.1/3h) -- -- -- --
07:00 16.8 16.8 16.2 SSO 7.4 -- 11.1 96 1009.6(1.0/3h) -- -- -- --
06:00 16.8 16.8 16.1 SO 7.4 -- 13.0 96 1009.5(0.9/3h) -- -- -- --
05:00 16.7 16.7 16.2 SO 5.6 -- 11.1 97 1008.8(0.6/3h) -- -- -- --
04:00 16.2 16.2 15.8 S 3.7 -- 7.4 97 1008.6(0.3/3h) -- -- -- --
03:00 16.3 16.3 15.9 S 5.6 -- 11.1 97 1008.5(0.1/3h) -- -- -- --
02:00 16.0 16.0 15.5 S 3.7 -- 7.4 97 1008.2(-0.2/3h) -- -- -- --
01:00 16.7 16.7 15.8 S 3.7 -- 7.4 94 1008.2(-0.2/3h) -- -- -- --
00:00 16.7 16.7 15.9 SSE 3.7 -- 9.3 95 1008.3(0.0/3h) -- -- -- --

1 Coordinated Universal Time. Actuellement il est 01:00 locale et 23:00 UTC.

2 Le vent souffle depuis la direction indiquée vers la direction oposée.

3 Les rafales max. sont disponible 40 min après l'heure du relevé.

4 Pour les stations d'altitude (plus de 600m) le géopotentiel du niveau le plus proche de la pression obligatoire est indiqué.

5 Les stations disposant d'un diffuseur peuvent indiquer "trace". Cela signifie que des précipitations ont touchés le sol mais que la quantité est inférieure à 0.1 mm.

Récapitulatif de la journée
Température [°C] Vent [km/h] Ensoleillement4 [h] Precipitations totale5 [mm] Pression [Hpa]
Min1 Max.2 Moy.3 Max. Min Max.
15.8 21.3 0 16.7 0 h 0 min 0 1008.2 1012.8

1 Température minimale relevée entre 18:00 UTC la veille et 18:00 UTC le jour donné.

2 Température maximale relevée entre 06:00 UTC le jour donné et 06:00 UTC le lendemain.

3 Vent moyen de la journée basé sur les relevés horaires.

4 Ensoleillement en heures relevé entre 06:00 UTC la veille et 06:00 UTC le jour donné.

5 Précipitations totales tombées entre 06:00 UTC la jour donné et 06:00 UTC le lendemain.

Graphiques horaires